createdAt,value
2023-05-09T00:01:36.102Z,98983.16
2023-05-09T00:04:06.818Z,98978.75
2023-05-09T00:06:37.595Z,98978.75
2023-05-09T00:09:08.527Z,98970.25
2023-05-09T00:11:43.298Z,98972.88
2023-05-09T00:14:20.904Z,98974.84
2023-05-09T00:16:56.477Z,98951.88
2023-05-09T00:19:34.289Z,98960.88
2023-05-09T00:22:11.951Z,98962.69
2023-05-09T00:24:43.973Z,98968.47
2023-05-09T00:30:03.482Z,98957.78
2023-05-09T00:32:44.414Z,98936.38
2023-05-09T00:35:15.232Z,98958.81
2023-05-09T00:37:46.993Z,98947.94
2023-05-09T00:40:23.529Z,98935.09
2023-05-09T00:42:59.879Z,98936.91
2023-05-09T00:45:30.404Z,98947.63
2023-05-09T00:48:03.477Z,98928.25
2023-05-09T00:50:35.051Z,98944.34
2023-05-09T00:55:50.776Z,98931.97
2023-05-09T00:58:28.164Z,98928.06
2023-05-09T01:01:05.267Z,98926.94
2023-05-09T01:03:33.505Z,98924.47
2023-05-09T01:06:35.712Z,98925.59
2023-05-09T01:09:19.129Z,98922.88
2023-05-09T01:12:24.305Z,98927.00
2023-05-09T01:15:12.605Z,98929.44
2023-05-09T01:18:05.776Z,98934.44
2023-05-09T01:20:48.818Z,98927.81
2023-05-09T01:24:06.053Z,98917.75
2023-05-09T01:27:05.327Z,98923.81
2023-05-09T01:30:02.272Z,98920.84
2023-05-09T01:32:42.211Z,98891.41
2023-05-09T01:35:19.154Z,98912.03
2023-05-09T01:37:51.513Z,98910.84
2023-05-09T01:40:24.939Z,98905.31
2023-05-09T01:43:13.762Z,98904.25
2023-05-09T01:45:45.814Z,98901.78
2023-05-09T01:48:19.993Z,98902.53
2023-05-09T01:50:54.828Z,98894.75
2023-05-09T01:53:32.019Z,98882.38
2023-05-09T01:56:13.385Z,98873.16
2023-05-09T01:58:51.124Z,98888.34
2023-05-09T02:01:28.567Z,98894.50
2023-05-09T02:04:00.981Z,98896.53
2023-05-09T02:06:31.212Z,98890.81
2023-05-09T02:09:05.534Z,98888.44
2023-05-09T02:11:36.246Z,98891.22
2023-05-09T02:14:22.958Z,98885.56
2023-05-09T02:16:55.238Z,98882.50
2023-05-09T02:19:22.948Z,98890.81
2023-05-09T02:21:54.079Z,98881.78
2023-05-09T02:24:26.855Z,98887.81
2023-05-09T02:27:20.591Z,98888.84
2023-05-09T02:29:52.814Z,98838.03
2023-05-09T02:32:37.371Z,98889.25
2023-05-09T02:35:11.440Z,98897.56
2023-05-09T02:37:43.131Z,98892.84
2023-05-09T02:40:20.220Z,98892.84
2023-05-09T02:42:51.706Z,98897.56
2023-05-09T02:45:34.638Z,98899.00
2023-05-09T02:48:12.355Z,98900.25
2023-05-09T02:50:53.388Z,98895.72
2023-05-09T02:53:27.216Z,98899.13
2023-05-09T02:55:57.327Z,98905.16
2023-05-09T02:58:31.096Z,98908.56
2023-05-09T03:01:06.811Z,98907.91
2023-05-09T03:03:40.568Z,98889.03
2023-05-09T03:06:09.596Z,98910.91
2023-05-09T03:08:46.900Z,98910.31
2023-05-09T03:11:19.319Z,98893.06
2023-05-09T03:13:51.887Z,98900.84
2023-05-09T03:16:23.506Z,98901.78
2023-05-09T03:18:54.616Z,98897.97
2023-05-09T03:21:30.187Z,98899.59
2023-05-09T03:24:01.338Z,98900.66
2023-05-09T03:26:34.860Z,98895.84
2023-05-09T03:29:11.432Z,98899.53
2023-05-09T03:34:36.707Z,98897.94
2023-05-09T03:37:07.519Z,98900.81
2023-05-09T03:39:41.582Z,98907.09
2023-05-09T03:42:24.497Z,98898.06
2023-05-09T03:45:10.255Z,98897.66
2023-05-09T03:47:55.594Z,98901.25
2023-05-09T03:50:27.115Z,98879.28
2023-05-09T03:53:00.952Z,98853.28
2023-05-09T03:55:30.068Z,98898.16
2023-05-09T03:58:05.095Z,98901.03
2023-05-09T04:03:27.233Z,98907.59
2023-05-09T04:06:02.711Z,98902.25
2023-05-09T04:08:40.824Z,98886.94
2023-05-09T04:11:15.209Z,98899.84
2023-05-09T04:13:55.490Z,98905.78
2023-05-09T04:16:53.294Z,98910.63
2023-05-09T04:19:32.574Z,98903.09
2023-05-09T04:22:03.444Z,98901.78
2023-05-09T04:24:53.882Z,98903.31
2023-05-09T04:27:32.378Z,98902.41
2023-05-09T04:30:03.599Z,98904.97
2023-05-09T04:32:41.452Z,98908.72
2023-05-09T04:35:11.868Z,98915.41
2023-05-09T04:37:49.266Z,98918.94
2023-05-09T04:40:24.379Z,98913.44
2023-05-09T04:43:04.281Z,98920.88
2023-05-09T04:45:42.240Z,98917.03
2023-05-09T04:48:13.138Z,98918.41
2023-05-09T04:50:45.114Z,98922.63
2023-05-09T04:53:16.287Z,98924.69
2023-05-09T04:56:02.598Z,98924.47
2023-05-09T04:58:44.408Z,98926.88
2023-05-09T05:01:20.014Z,98909.44
2023-05-09T05:03:50.680Z,98926.59
2023-05-09T05:06:21.132Z,98925.34
2023-05-09T05:08:54.578Z,98922.16
2023-05-09T05:11:31.035Z,98919.19
2023-05-09T05:14:03.698Z,98903.81
2023-05-09T05:16:43.066Z,98900.09
2023-05-09T05:19:14.203Z,98903.56
2023-05-09T05:21:44.542Z,98910.13
2023-05-09T05:24:22.048Z,98887.75
2023-05-09T05:26:53.361Z,98902.94
2023-05-09T05:29:25.502Z,98904.78
2023-05-09T05:31:55.279Z,98916.41
2023-05-09T05:34:42.119Z,98912.78
2023-05-09T05:37:14.244Z,98922.13
2023-05-09T05:39:53.999Z,98915.25
2023-05-09T05:42:32.498Z,98911.59
2023-05-09T05:45:06.856Z,98899.09
2023-05-09T05:47:53.785Z,98901.16
2023-05-09T05:50:25.175Z,98900.91
2023-05-09T05:55:43.012Z,98905.31
2023-05-09T05:58:20.323Z,98903.41
2023-05-09T06:00:53.522Z,98905.38
2023-05-09T06:03:27.345Z,98897.19
2023-05-09T06:06:15.772Z,98900.69
2023-05-09T06:08:47.065Z,98905.78
2023-05-09T06:11:25.189Z,98902.22
2023-05-09T06:13:58.401Z,98902.66
2023-05-09T06:16:28.846Z,98897.63
2023-05-09T06:18:57.862Z,98903.72
2023-05-09T06:21:35.735Z,98897.66
2023-05-09T06:24:14.422Z,98898.03
2023-05-09T06:26:56.057Z,98900.03
2023-05-09T06:29:36.492Z,98886.28
2023-05-09T06:32:10.189Z,98899.94
2023-05-09T06:34:41.982Z,98908.44
2023-05-09T06:37:13.754Z,98898.78
2023-05-09T06:39:43.817Z,98895.22
2023-05-09T06:45:06.119Z,98880.97
2023-05-09T06:47:37.263Z,98879.97
2023-05-09T06:50:07.864Z,98877.53
2023-05-09T06:52:36.242Z,98874.22
2023-05-09T06:55:06.862Z,98876.50
2023-05-09T06:57:44.467Z,98863.59
2023-05-09T07:00:17.882Z,98866.13
2023-05-09T07:02:47.955Z,98859.31
2023-05-09T07:05:20.538Z,98869.22
2023-05-09T07:07:48.902Z,98871.13
2023-05-09T07:10:22.085Z,98869.75
2023-05-09T07:12:55.896Z,98871.38
2023-05-09T07:15:39.577Z,98862.38
2023-05-09T07:18:13.516Z,98858.97
2023-05-09T07:20:57.222Z,98872.38
2023-05-09T07:23:30.937Z,98874.34
2023-05-09T07:26:01.865Z,98877.25
2023-05-09T07:28:33.308Z,98866.72
2023-05-09T07:31:06.269Z,98870.09
2023-05-09T07:33:37.869Z,98867.53
2023-05-09T07:36:22.925Z,98869.41
2023-05-09T07:38:56.708Z,98850.03
2023-05-09T07:41:26.772Z,98859.47
2023-05-09T07:44:01.000Z,98861.22
2023-05-09T07:46:35.092Z,98843.06
2023-05-09T07:49:09.096Z,98860.97
2023-05-09T07:51:39.920Z,98841.59
2023-05-09T07:54:16.345Z,98853.41
2023-05-09T07:59:28.620Z,98812.88
2023-05-09T08:02:08.240Z,98849.13
2023-05-09T08:04:51.792Z,98843.56
2023-05-09T08:07:29.879Z,98847.16
2023-05-09T08:09:58.884Z,98838.81
2023-05-09T08:12:32.577Z,98841.59
2023-05-09T08:15:03.148Z,98845.50
2023-05-09T08:17:42.865Z,98848.81
2023-05-09T08:20:19.437Z,98823.56
2023-05-09T08:22:53.229Z,98850.34
2023-05-09T08:28:18.032Z,98855.59
2023-05-09T08:30:51.518Z,98840.19
2023-05-09T08:33:34.190Z,98853.78
2023-05-09T08:36:19.339Z,98848.53
2023-05-09T08:38:55.480Z,98838.13
2023-05-09T08:41:34.154Z,98841.81
2023-05-09T08:44:15.536Z,98840.22
2023-05-09T08:46:51.431Z,98840.72
2023-05-09T08:49:25.051Z,98839.78
2023-05-09T08:52:10.670Z,98792.75
2023-05-09T08:54:41.841Z,98843.03
2023-05-09T08:57:19.171Z,98831.50
2023-05-09T08:59:49.320Z,98851.09
2023-05-09T09:02:19.947Z,98831.38
2023-05-09T09:04:54.803Z,98837.34
2023-05-09T09:07:26.664Z,98823.69
2023-05-09T09:10:15.257Z,98845.00
2023-05-09T09:12:50.026Z,98838.75
2023-05-09T09:15:31.909Z,98838.47
2023-05-09T09:18:10.741Z,98784.47
2023-05-09T09:20:49.733Z,98840.94
2023-05-09T09:23:22.057Z,98836.47
2023-05-09T09:26:00.085Z,98824.00
2023-05-09T09:28:31.156Z,98823.69
2023-05-09T09:33:56.631Z,98803.06
2023-05-09T09:36:41.947Z,98815.09
2023-05-09T09:39:18.074Z,98819.34
2023-05-09T09:41:48.944Z,98812.41
2023-05-09T09:44:24.212Z,98814.59
2023-05-09T09:46:57.053Z,98816.56
2023-05-09T09:49:27.063Z,98787.22
2023-05-09T09:52:04.859Z,98810.22
2023-05-09T09:54:49.922Z,98804.50
2023-05-09T09:57:40.987Z,98795.59
2023-05-09T10:00:20.286Z,98799.28
2023-05-09T10:03:06.280Z,98799.81
2023-05-09T10:05:41.508Z,98802.94
2023-05-09T10:08:12.636Z,98806.88
2023-05-09T10:10:48.956Z,98809.09
2023-05-09T10:13:20.874Z,98802.78
2023-05-09T10:15:53.834Z,98808.63
2023-05-09T10:18:32.912Z,98801.75
2023-05-09T10:21:07.528Z,98790.81
2023-05-09T10:23:40.917Z,98799.06
2023-05-09T10:26:32.205Z,98780.66
2023-05-09T10:29:07.190Z,98798.94
2023-05-09T10:31:40.366Z,98795.41
2023-05-09T10:34:15.194Z,98795.59
2023-05-09T10:36:48.797Z,98789.03
2023-05-09T10:39:19.857Z,98791.38
2023-05-09T10:42:05.860Z,98766.09
2023-05-09T10:44:36.972Z,98768.63
2023-05-09T10:47:15.378Z,98768.00
2023-05-09T10:49:50.413Z,98771.63
2023-05-09T10:52:21.647Z,98759.81
2023-05-09T10:55:09.179Z,98758.91
2023-05-09T10:57:52.034Z,98772.59
2023-05-09T11:00:29.573Z,98769.09
2023-05-09T11:03:14.018Z,98764.25
2023-05-09T11:05:54.825Z,98760.66
2023-05-09T11:08:35.564Z,98741.22
2023-05-09T11:11:29.219Z,98751.66
2023-05-09T11:14:09.103Z,98743.69
2023-05-09T11:17:04.391Z,98746.03
2023-05-09T11:20:02.885Z,98745.59
2023-05-09T11:22:33.122Z,98741.88
2023-05-09T11:25:16.118Z,98746.91
2023-05-09T11:27:51.210Z,98745.50
2023-05-09T11:30:21.589Z,98734.75
2023-05-09T11:33:00.934Z,98730.53
2023-05-09T11:35:29.526Z,98717.06
2023-05-09T11:38:12.695Z,98720.81
2023-05-09T11:40:43.094Z,98713.84
2023-05-09T11:43:13.840Z,98720.63
2023-05-09T11:48:32.024Z,98703.53
2023-05-09T11:51:08.836Z,98708.66
2023-05-09T11:53:49.324Z,98694.09
2023-05-09T11:56:23.204Z,98690.03
2023-05-09T11:58:54.048Z,98692.56
2023-05-09T12:01:34.280Z,98687.81
2023-05-09T12:04:06.951Z,98673.72
2023-05-09T12:06:42.859Z,98673.03
2023-05-09T12:09:39.341Z,98676.34
2023-05-09T12:12:14.921Z,98666.19
2023-05-09T12:14:48.837Z,98682.72
2023-05-09T12:17:19.337Z,98668.06
2023-05-09T12:19:50.142Z,98672.19
2023-05-09T12:22:23.915Z,98669.50
2023-05-09T12:24:54.905Z,98672.13
2023-05-09T12:27:30.826Z,98665.78
2023-05-09T12:32:55.744Z,98665.66
2023-05-09T12:35:26.341Z,98658.63
2023-05-09T12:37:59.995Z,98655.13
2023-05-09T12:40:30.569Z,98655.47
2023-05-09T12:43:36.226Z,98661.16
2023-05-09T12:46:17.258Z,98629.38
2023-05-09T12:48:49.777Z,98629.06
2023-05-09T12:51:23.760Z,98642.88
2023-05-09T12:54:01.365Z,98622.81
2023-05-09T12:56:35.722Z,98626.06
2023-05-09T12:59:06.889Z,98632.31
2023-05-09T13:01:47.274Z,98635.31
2023-05-09T13:04:21.191Z,98631.28
2023-05-09T13:06:56.656Z,98630.84
2023-05-09T13:09:27.439Z,98612.84
2023-05-09T13:11:58.371Z,98613.78
2023-05-09T13:14:26.601Z,98618.91
2023-05-09T13:16:57.200Z,98611.31
2023-05-09T13:19:32.345Z,98615.22
2023-05-09T13:22:05.427Z,98605.69
2023-05-09T13:24:36.013Z,98602.06
2023-05-09T13:27:06.755Z,98583.72
2023-05-09T13:29:37.007Z,98599.53
2023-05-09T13:32:18.327Z,98609.34
2023-05-09T13:34:50.162Z,98602.22
2023-05-09T13:40:09.256Z,98597.00
2023-05-09T13:42:38.082Z,98598.72
2023-05-09T13:45:17.286Z,98590.38
2023-05-09T13:47:48.804Z,98580.72
2023-05-09T13:50:20.201Z,98588.44
2023-05-09T13:52:50.970Z,98587.72
2023-05-09T13:55:23.245Z,98579.38
2023-05-09T13:57:54.004Z,98589.31
2023-05-09T14:00:28.778Z,98583.16
2023-05-09T14:03:00.110Z,98569.00
2023-05-09T14:05:34.602Z,98581.16
2023-05-09T14:08:11.323Z,98582.94
2023-05-09T14:10:44.988Z,98569.19
2023-05-09T14:13:29.479Z,98566.59
2023-05-09T14:16:08.198Z,98568.47
2023-05-09T14:18:38.540Z,98559.50
2023-05-09T14:21:13.574Z,98556.69
2023-05-09T14:23:43.262Z,98555.75
2023-05-09T14:26:26.039Z,98538.78
2023-05-09T14:29:06.356Z,98537.31
2023-05-09T14:31:40.904Z,98541.00
2023-05-09T14:34:11.657Z,98537.34
2023-05-09T14:36:39.806Z,98553.47
2023-05-09T14:39:11.246Z,98546.25
2023-05-09T14:41:42.025Z,98537.69
2023-05-09T14:44:12.177Z,98547.81
2023-05-09T14:46:46.059Z,98546.72
2023-05-09T14:49:19.891Z,98537.47
2023-05-09T14:51:59.986Z,98532.56
2023-05-09T14:54:30.328Z,98529.69
2023-05-09T14:57:00.677Z,98520.41
2023-05-09T14:59:41.195Z,98493.50
2023-05-09T15:02:23.782Z,98519.44
2023-05-09T15:04:59.793Z,98519.75
2023-05-09T15:07:51.161Z,98519.75
2023-05-09T15:10:25.029Z,98519.03
2023-05-09T15:13:07.249Z,98521.84
2023-05-09T15:15:42.667Z,98489.81
2023-05-09T15:18:25.825Z,98522.50
2023-05-09T15:20:54.249Z,98516.63
2023-05-09T15:23:24.929Z,98511.03
2023-05-09T15:26:11.670Z,98519.75
2023-05-09T15:28:48.422Z,98526.59
2023-05-09T15:31:24.161Z,98517.44
2023-05-09T15:33:55.608Z,98520.03
2023-05-09T15:36:26.456Z,98515.47
2023-05-09T15:39:03.499Z,98517.94
2023-05-09T15:41:40.574Z,98509.47
2023-05-09T15:44:14.275Z,98489.91
2023-05-09T15:46:43.638Z,98494.44
2023-05-09T15:49:14.714Z,98487.41
2023-05-09T15:51:47.536Z,98497.69
2023-05-09T15:54:21.546Z,98504.25
2023-05-09T15:59:34.659Z,98501.16
2023-05-09T16:02:06.223Z,98487.63
2023-05-09T16:04:39.496Z,98504.38
2023-05-09T16:07:10.468Z,98493.03
2023-05-09T16:09:43.359Z,98507.63
2023-05-09T16:12:18.145Z,98477.59
2023-05-09T16:14:48.936Z,98494.44
2023-05-09T16:20:06.733Z,98489.81
2023-05-09T16:22:49.736Z,98443.41
2023-05-09T16:25:18.402Z,98495.22
2023-05-09T16:27:48.071Z,98487.88
2023-05-09T16:33:03.825Z,98484.41
2023-05-09T16:35:32.241Z,98490.78
2023-05-09T16:38:00.907Z,98494.50
2023-05-09T16:40:31.111Z,98491.00
2023-05-09T16:43:02.628Z,98485.03
2023-05-09T16:45:46.828Z,98484.66
2023-05-09T16:48:25.192Z,98489.44
2023-05-09T16:51:01.775Z,98476.06
2023-05-09T16:53:40.338Z,98468.47
2023-05-09T16:56:14.436Z,98465.34
2023-05-09T16:58:44.893Z,98468.00
2023-05-09T17:01:21.871Z,98469.28
2023-05-09T17:04:04.208Z,98483.94
2023-05-09T17:06:48.600Z,98474.59
2023-05-09T17:09:19.422Z,98488.78
2023-05-09T17:11:52.121Z,98475.63
2023-05-09T17:14:23.842Z,98474.94
2023-05-09T17:16:53.989Z,98479.00
2023-05-09T17:19:23.824Z,98475.63
2023-05-09T17:21:53.752Z,98476.91
2023-05-09T17:24:31.348Z,98480.03
2023-05-09T17:27:01.773Z,98477.31
2023-05-09T17:29:33.842Z,98471.38
2023-05-09T17:32:16.425Z,98468.72
2023-05-09T17:34:45.378Z,98489.19
2023-05-09T17:37:16.480Z,98484.94
2023-05-09T17:39:49.976Z,98488.53
2023-05-09T17:42:24.870Z,98489.16
2023-05-09T17:45:08.772Z,98470.53
2023-05-09T17:47:43.901Z,98485.28
2023-05-09T17:50:14.833Z,98426.09
2023-05-09T17:52:56.887Z,98488.47
2023-05-09T17:55:31.290Z,98486.78
2023-05-09T17:58:00.494Z,98484.13
2023-05-09T18:00:36.241Z,98489.53
2023-05-09T18:03:13.287Z,98493.59
2023-05-09T18:05:50.046Z,98490.25
2023-05-09T18:08:20.590Z,98489.81
2023-05-09T18:10:51.362Z,98485.00
2023-05-09T18:13:25.603Z,98483.50
2023-05-09T18:15:55.111Z,98479.91
2023-05-09T18:18:32.393Z,98482.03
2023-05-09T18:21:16.184Z,98478.19
2023-05-09T18:23:49.986Z,98485.78
2023-05-09T18:26:23.559Z,98490.84
2023-05-09T18:28:55.366Z,98468.50
2023-05-09T18:31:25.904Z,98483.56
2023-05-09T18:34:05.897Z,98486.97
2023-05-09T18:36:36.677Z,98480.94
2023-05-09T18:39:13.915Z,98480.13
2023-05-09T18:41:45.332Z,98460.78
2023-05-09T18:44:19.512Z,98479.41
2023-05-09T18:46:53.769Z,98485.28
2023-05-09T18:49:25.960Z,98487.13
2023-05-09T18:52:16.711Z,98489.97
2023-05-09T18:54:48.480Z,98476.72
2023-05-09T18:57:24.572Z,98487.56
2023-05-09T19:00:03.494Z,98488.41
2023-05-09T19:02:31.280Z,98460.59
2023-05-09T19:05:07.770Z,98484.94
2023-05-09T19:07:38.977Z,98466.94
2023-05-09T19:10:16.572Z,98485.88
2023-05-09T19:12:57.565Z,98486.69
2023-05-09T19:15:28.382Z,98453.22
2023-05-09T19:20:46.002Z,98482.63
2023-05-09T19:23:22.097Z,98487.88
2023-05-09T19:25:56.339Z,98477.94
2023-05-09T19:28:25.391Z,98481.19
2023-05-09T19:31:01.105Z,98497.88
2023-05-09T19:33:47.583Z,98488.53
2023-05-09T19:36:20.100Z,98496.84
2023-05-09T19:38:55.634Z,98496.81
2023-05-09T19:41:24.555Z,98492.00
2023-05-09T19:44:11.896Z,98487.34
2023-05-09T19:46:45.635Z,98495.50
2023-05-09T19:49:18.021Z,98488.66
2023-05-09T19:51:56.820Z,98491.91
2023-05-09T19:54:31.157Z,98498.44
2023-05-09T19:57:09.913Z,98503.69
2023-05-09T19:59:46.389Z,98499.56
2023-05-09T20:02:17.749Z,98497.34
2023-05-09T20:05:01.407Z,98498.66
2023-05-09T20:07:31.473Z,98504.94
2023-05-09T20:10:14.935Z,98506.06
2023-05-09T20:12:52.727Z,98495.34
2023-05-09T20:15:37.142Z,98496.47
2023-05-09T20:18:12.465Z,98503.16
2023-05-09T20:20:43.266Z,98499.88
2023-05-09T20:23:15.518Z,98501.34
2023-05-09T20:25:44.420Z,98496.31
2023-05-09T20:28:16.376Z,98503.78
2023-05-09T20:30:48.870Z,98497.75
2023-05-09T20:33:20.518Z,98493.56
2023-05-09T20:35:57.123Z,98491.25
2023-05-09T20:38:34.650Z,98498.59
2023-05-09T20:41:08.162Z,98485.69
2023-05-09T20:43:44.050Z,98500.78
2023-05-09T20:46:14.686Z,98482.88
2023-05-09T20:48:42.713Z,98499.00
2023-05-09T20:51:16.630Z,98501.88
2023-05-09T20:53:50.747Z,98501.75
2023-05-09T20:56:28.238Z,98440.78
2023-05-09T20:59:03.178Z,98491.88
2023-05-09T21:01:45.470Z,98485.34
2023-05-09T21:07:10.117Z,98480.50
2023-05-09T21:09:47.301Z,98477.97
2023-05-09T21:12:21.688Z,98479.72
2023-05-09T21:14:51.665Z,98473.47
2023-05-09T21:17:27.891Z,98482.88
2023-05-09T21:19:58.572Z,98485.56
2023-05-09T21:22:42.201Z,98479.09
2023-05-09T21:25:16.146Z,98476.31
2023-05-09T21:27:55.789Z,98464.78
2023-05-09T21:30:33.326Z,98470.16
2023-05-09T21:33:03.920Z,98459.50
2023-05-09T21:35:46.947Z,98469.41
2023-05-09T21:38:31.725Z,98468.00
2023-05-09T21:41:05.767Z,98472.25
2023-05-09T21:43:37.765Z,98473.91
2023-05-09T21:46:12.177Z,98466.75
2023-05-09T21:48:42.906Z,98461.66
2023-05-09T21:51:15.670Z,98462.94
2023-05-09T21:53:46.954Z,98451.44
2023-05-09T21:56:18.197Z,98464.06
2023-05-09T21:58:53.986Z,98442.00
2023-05-09T22:01:30.331Z,98460.75
2023-05-09T22:04:03.368Z,98454.56
2023-05-09T22:06:37.443Z,98446.28
2023-05-09T22:09:09.494Z,98456.97
2023-05-09T22:11:43.496Z,98441.28
2023-05-09T22:14:13.839Z,98444.25
2023-05-09T22:16:57.627Z,98424.97
2023-05-09T22:19:27.347Z,98441.00
2023-05-09T22:21:56.276Z,98438.75
2023-05-09T22:24:31.350Z,98447.72
2023-05-09T22:27:11.593Z,98442.06
2023-05-09T22:29:45.423Z,98441.28
2023-05-09T22:32:20.169Z,98402.56
2023-05-09T22:34:53.392Z,98443.16
2023-05-09T22:37:26.581Z,98437.34
2023-05-09T22:40:06.326Z,98389.88
2023-05-09T22:42:37.486Z,98435.13
2023-05-09T22:45:09.819Z,98425.16
2023-05-09T22:47:40.509Z,98388.75
2023-05-09T22:50:15.072Z,98434.84
2023-05-09T22:52:50.913Z,98438.25
2023-05-09T22:55:24.698Z,98442.59
2023-05-09T22:57:58.154Z,98417.03
2023-05-09T23:00:33.855Z,98433.94
2023-05-09T23:03:14.465Z,98424.94
2023-05-09T23:05:48.943Z,98430.41
2023-05-09T23:08:17.263Z,98421.38
2023-05-09T23:10:51.905Z,98418.09
2023-05-09T23:13:32.662Z,98421.59
2023-05-09T23:16:06.714Z,98415.22
2023-05-09T23:18:52.757Z,98418.38
2023-05-09T23:21:23.672Z,98403.50
2023-05-09T23:23:54.824Z,98413.63
2023-05-09T23:26:25.443Z,98406.03
2023-05-09T23:31:51.151Z,98392.50
2023-05-09T23:34:38.792Z,98403.59
2023-05-09T23:37:20.696Z,98401.38
2023-05-09T23:42:33.435Z,98388.34
2023-05-09T23:45:05.804Z,98390.72
2023-05-09T23:47:40.486Z,98387.38
2023-05-09T23:50:14.615Z,98374.78
2023-05-09T23:52:49.868Z,98376.97
2023-05-09T23:55:20.952Z,98377.41
2023-05-09T23:57:57.904Z,98366.75
